sensor_id;sensor_type;location;lat;lon;timestamp;temperature;humidity
67196;DHT22;54122;53.538;49.366;2022-09-06T00:01:20;8.70;92.70
67196;DHT22;54122;53.538;49.366;2022-09-06T00:03:48;8.60;92.70
67196;DHT22;54122;53.538;49.366;2022-09-06T00:06:15;8.60;92.90
67196;DHT22;54122;53.538;49.366;2022-09-06T00:08:42;8.50;93.10
67196;DHT22;54122;53.538;49.366;2022-09-06T00:11:08;8.50;93.10
67196;DHT22;54122;53.538;49.366;2022-09-06T00:13:34;8.50;93.10
67196;DHT22;54122;53.538;49.366;2022-09-06T00:16:20;8.40;93.10
67196;DHT22;54122;53.538;49.366;2022-09-06T00:18:48;8.40;93.20
67196;DHT22;54122;53.538;49.366;2022-09-06T00:23:40;8.30;93.30
67196;DHT22;54122;53.538;49.366;2022-09-06T00:26:06;8.30;93.20
67196;DHT22;54122;53.538;49.366;2022-09-06T00:28:32;8.30;93.40
67196;DHT22;54122;53.538;49.366;2022-09-06T00:30:58;8.20;93.40
67196;DHT22;54122;53.538;49.366;2022-09-06T00:33:24;8.20;93.40
67196;DHT22;54122;53.538;49.366;2022-09-06T00:35:56;8.20;93.30
67196;DHT22;54122;53.538;49.366;2022-09-06T00:38:22;8.10;93.40
67196;DHT22;54122;53.538;49.366;2022-09-06T00:40:48;8.10;93.60
67196;DHT22;54122;53.538;49.366;2022-09-06T00:43:14;8.00;93.70
67196;DHT22;54122;53.538;49.366;2022-09-06T00:45:40;8.00;93.80
67196;DHT22;54122;53.538;49.366;2022-09-06T00:48:06;8.00;93.90
67196;DHT22;54122;53.538;49.366;2022-09-06T00:50:32;8.00;93.90
67196;DHT22;54122;53.538;49.366;2022-09-06T00:52:58;8.00;93.90
67196;DHT22;54122;53.538;49.366;2022-09-06T00:55:24;8.00;93.80
67196;DHT22;54122;53.538;49.366;2022-09-06T00:57:50;7.90;93.70
67196;DHT22;54122;53.538;49.366;2022-09-06T01:00:17;7.80;93.70
67196;DHT22;54122;53.538;49.366;2022-09-06T01:02:44;7.80;93.90
67196;DHT22;54122;53.538;49.366;2022-09-06T01:05:10;7.70;94.00
67196;DHT22;54122;53.538;49.366;2022-09-06T01:07:41;7.60;94.10
67196;DHT22;54122;53.538;49.366;2022-09-06T01:12:58;7.50;94.40
67196;DHT22;54122;53.538;49.366;2022-09-06T01:15:34;7.50;94.30
67196;DHT22;54122;53.538;49.366;2022-09-06T01:18:18;7.40;94.50
67196;DHT22;54122;53.538;49.366;2022-09-06T01:31:17;7.00;94.70
67196;DHT22;54122;53.538;49.366;2022-09-06T01:34:28;7.00;94.60
67196;DHT22;54122;53.538;49.366;2022-09-06T01:39:00;7.00;94.80
67196;DHT22;54122;53.538;49.366;2022-09-06T01:41:26;6.90;94.80
67196;DHT22;54122;53.538;49.366;2022-09-06T01:43:53;6.90;94.90
67196;DHT22;54122;53.538;49.366;2022-09-06T01:49:02;6.80;94.90
67196;DHT22;54122;53.538;49.366;2022-09-06T01:54:11;6.90;95.10
67196;DHT22;54122;53.538;49.366;2022-09-06T02:04:24;7.10;94.60
67196;DHT22;54122;53.538;49.366;2022-09-06T02:06:53;7.10;94.30
67196;DHT22;54122;53.538;49.366;2022-09-06T02:09:21;7.00;94.30
67196;DHT22;54122;53.538;49.366;2022-09-06T02:11:56;6.90;94.30
67196;DHT22;54122;53.538;49.366;2022-09-06T02:14:24;6.80;94.40
67196;DHT22;54122;53.538;49.366;2022-09-06T02:16:52;6.80;94.50
67196;DHT22;54122;53.538;49.366;2022-09-06T02:19:24;6.70;94.70
67196;DHT22;54122;53.538;49.366;2022-09-06T02:21:52;6.70;94.90
67196;DHT22;54122;53.538;49.366;2022-09-06T02:24:20;6.70;95.00
67196;DHT22;54122;53.538;49.366;2022-09-06T02:26:47;6.80;95.20
67196;DHT22;54122;53.538;49.366;2022-09-06T02:29:14;6.80;95.10
67196;DHT22;54122;53.538;49.366;2022-09-06T02:31:42;6.90;94.90
67196;DHT22;54122;53.538;49.366;2022-09-06T02:34:10;6.90;94.90
67196;DHT22;54122;53.538;49.366;2022-09-06T02:36:38;7.00;94.80
67196;DHT22;54122;53.538;49.366;2022-09-06T02:39:04;7.10;94.80
67196;DHT22;54122;53.538;49.366;2022-09-06T02:41:30;7.20;94.70
67196;DHT22;54122;53.538;49.366;2022-09-06T02:43:57;7.20;94.70
67196;DHT22;54122;53.538;49.366;2022-09-06T02:46:23;7.30;94.60
67196;DHT22;54122;53.538;49.366;2022-09-06T02:48:49;7.40;94.50
67196;DHT22;54122;53.538;49.366;2022-09-06T02:51:15;7.50;94.30
67196;DHT22;54122;53.538;49.366;2022-09-06T02:53:41;7.50;94.20
67196;DHT22;54122;53.538;49.366;2022-09-06T02:56:07;7.60;94.20
67196;DHT22;54122;53.538;49.366;2022-09-06T02:58:33;7.70;94.20
67196;DHT22;54122;53.538;49.366;2022-09-06T03:01:00;7.80;94.10
67196;DHT22;54122;53.538;49.366;2022-09-06T03:03:26;7.90;94.10
67196;DHT22;54122;53.538;49.366;2022-09-06T03:05:52;8.00;93.90
67196;DHT22;54122;53.538;49.366;2022-09-06T03:08:19;8.10;93.80
67196;DHT22;54122;53.538;49.366;2022-09-06T03:10:52;8.20;93.70
67196;DHT22;54122;53.538;49.366;2022-09-06T03:13:18;8.30;93.50
67196;DHT22;54122;53.538;49.366;2022-09-06T03:15:48;8.40;93.30
67196;DHT22;54122;53.538;49.366;2022-09-06T03:18:14;8.50;93.20
67196;DHT22;54122;53.538;49.366;2022-09-06T03:20:40;8.60;93.00
67196;DHT22;54122;53.538;49.366;2022-09-06T03:23:06;8.70;92.80
67196;DHT22;54122;53.538;49.366;2022-09-06T03:25:32;8.80;92.90
67196;DHT22;54122;53.538;49.366;2022-09-06T03:27:58;8.90;92.90
67196;DHT22;54122;53.538;49.366;2022-09-06T03:30:24;9.00;92.80
67196;DHT22;54122;53.538;49.366;2022-09-06T03:32:50;9.20;93.10
67196;DHT22;54122;53.538;49.366;2022-09-06T03:35:16;9.90;94.20
67196;DHT22;54122;53.538;49.366;2022-09-06T03:37:42;11.70;92.20
67196;DHT22;54122;53.538;49.366;2022-09-06T03:40:08;13.80;84.90
67196;DHT22;54122;53.538;49.366;2022-09-06T03:42:34;15.50;77.00
67196;DHT22;54122;53.538;49.366;2022-09-06T03:45:01;15.90;73.10
67196;DHT22;54122;53.538;49.366;2022-09-06T03:47:27;16.30;73.40
67196;DHT22;54122;53.538;49.366;2022-09-06T03:49:53;17.70;70.40
67196;DHT22;54122;53.538;49.366;2022-09-06T03:52:19;18.50;66.00
67196;DHT22;54122;53.538;49.366;2022-09-06T03:54:45;18.00;65.30
67196;DHT22;54122;53.538;49.366;2022-09-06T03:57:11;17.60;67.40
67196;DHT22;54122;53.538;49.366;2022-09-06T03:59:37;17.20;68.80
67196;DHT22;54122;53.538;49.366;2022-09-06T04:02:03;17.30;69.10
67196;DHT22;54122;53.538;49.366;2022-09-06T04:04:29;17.30;69.30
67196;DHT22;54122;53.538;49.366;2022-09-06T04:06:55;17.90;67.80
67196;DHT22;54122;53.538;49.366;2022-09-06T04:09:21;17.80;65.30
67196;DHT22;54122;53.538;49.366;2022-09-06T04:11:47;18.40;64.90
67196;DHT22;54122;53.538;49.366;2022-09-06T04:14:13;19.60;61.60
67196;DHT22;54122;53.538;49.366;2022-09-06T04:16:39;20.60;58.70
67196;DHT22;54122;53.538;49.366;2022-09-06T04:19:05;21.20;55.50
67196;DHT22;54122;53.538;49.366;2022-09-06T04:21:31;21.70;51.70
67196;DHT22;54122;53.538;49.366;2022-09-06T04:23:57;22.00;50.90
67196;DHT22;54122;53.538;49.366;2022-09-06T04:26:23;22.50;49.40
67196;DHT22;54122;53.538;49.366;2022-09-06T04:28:49;23.10;48.10
67196;DHT22;54122;53.538;49.366;2022-09-06T04:31:15;23.70;46.30
67196;DHT22;54122;53.538;49.366;2022-09-06T04:33:44;23.70;44.10
67196;DHT22;54122;53.538;49.366;2022-09-06T04:36:10;23.30;44.70
67196;DHT22;54122;53.538;49.366;2022-09-06T04:38:37;23.00;43.90
67196;DHT22;54122;53.538;49.366;2022-09-06T04:41:04;21.90;45.50
67196;DHT22;54122;53.538;49.366;2022-09-06T04:43:30;20.70;47.70
67196;DHT22;54122;53.538;49.366;2022-09-06T04:46:30;20.80;48.80
67196;DHT22;54122;53.538;49.366;2022-09-06T04:48:50;21.70;47.60
67196;DHT22;54122;53.538;49.366;2022-09-06T04:51:16;23.10;44.50
67196;DHT22;54122;53.538;49.366;2022-09-06T04:53:43;24.00;40.80
67196;DHT22;54122;53.538;49.366;2022-09-06T04:56:13;25.00;39.60
67196;DHT22;54122;53.538;49.366;2022-09-06T04:58:41;25.70;37.40
67196;DHT22;54122;53.538;49.366;2022-09-06T05:01:07;26.20;35.40
67196;DHT22;54122;53.538;49.366;2022-09-06T05:03:33;26.90;34.30
67196;DHT22;54122;53.538;49.366;2022-09-06T05:06:13;27.60;33.20
67196;DHT22;54122;53.538;49.366;2022-09-06T05:08:39;28.20;31.60
67196;DHT22;54122;53.538;49.366;2022-09-06T05:11:06;28.50;30.40
67196;DHT22;54122;53.538;49.366;2022-09-06T05:13:33;28.10;30.10
67196;DHT22;54122;53.538;49.366;2022-09-06T05:16:00;27.20;29.80
67196;DHT22;54122;53.538;49.366;2022-09-06T05:18:26;26.60;31.10
67196;DHT22;54122;53.538;49.366;2022-09-06T05:20:52;26.50;30.40
67196;DHT22;54122;53.538;49.366;2022-09-06T05:23:19;26.00;31.00
67196;DHT22;54122;53.538;49.366;2022-09-06T05:25:45;25.50;31.00
67196;DHT22;54122;53.538;49.366;2022-09-06T05:28:11;25.00;31.20
67196;DHT22;54122;53.538;49.366;2022-09-06T05:30:37;24.40;32.50
67196;DHT22;54122;53.538;49.366;2022-09-06T05:33:03;25.20;32.50
67196;DHT22;54122;53.538;49.366;2022-09-06T05:35:29;24.80;30.20
67196;DHT22;54122;53.538;49.366;2022-09-06T05:37:55;23.70;31.30
67196;DHT22;54122;53.538;49.366;2022-09-06T05:40:21;22.40;33.20
67196;DHT22;54122;53.538;49.366;2022-09-06T05:42:47;21.30;35.50
67196;DHT22;54122;53.538;49.366;2022-09-06T05:45:13;20.50;36.90
67196;DHT22;54122;53.538;49.366;2022-09-06T05:47:40;19.70;37.80
67196;DHT22;54122;53.538;49.366;2022-09-06T05:50:06;19.10;39.80
67196;DHT22;54122;53.538;49.366;2022-09-06T05:52:32;18.90;40.80
67196;DHT22;54122;53.538;49.366;2022-09-06T05:55:00;19.10;41.20
67196;DHT22;54122;53.538;49.366;2022-09-06T05:57:26;19.60;40.50
67196;DHT22;54122;53.538;49.366;2022-09-06T05:59:52;19.90;39.40
67196;DHT22;54122;53.538;49.366;2022-09-06T06:02:18;20.30;39.20
67196;DHT22;54122;53.538;49.366;2022-09-06T06:04:45;20.60;38.40
67196;DHT22;54122;53.538;49.366;2022-09-06T06:07:14;20.70;37.80
67196;DHT22;54122;53.538;49.366;2022-09-06T06:09:40;20.80;38.00
67196;DHT22;54122;53.538;49.366;2022-09-06T06:12:07;21.20;37.20
67196;DHT22;54122;53.538;49.366;2022-09-06T06:14:33;21.90;35.70
67196;DHT22;54122;53.538;49.366;2022-09-06T06:16:59;22.00;35.00
67196;DHT22;54122;53.538;49.366;2022-09-06T06:19:25;22.00;35.20
67196;DHT22;54122;53.538;49.366;2022-09-06T06:21:51;21.90;35.10
67196;DHT22;54122;53.538;49.366;2022-09-06T06:24:17;21.90;35.60
67196;DHT22;54122;53.538;49.366;2022-09-06T06:26:43;22.00;35.70
67196;DHT22;54122;53.538;49.366;2022-09-06T06:29:09;22.40;34.70
67196;DHT22;54122;53.538;49.366;2022-09-06T06:31:36;22.90;34.20
67196;DHT22;54122;53.538;49.366;2022-09-06T06:34:02;24.00;32.90
67196;DHT22;54122;53.538;49.366;2022-09-06T06:36:29;25.50;29.50
67196;DHT22;54122;53.538;49.366;2022-09-06T06:38:56;26.30;28.70
67196;DHT22;54122;53.538;49.366;2022-09-06T06:41:23;26.30;28.20
67196;DHT22;54122;53.538;49.366;2022-09-06T06:43:50;25.80;28.60
67196;DHT22;54122;53.538;49.366;2022-09-06T06:46:16;25.30;29.50
67196;DHT22;54122;53.538;49.366;2022-09-06T06:48:43;24.60;29.80
67196;DHT22;54122;53.538;49.366;2022-09-06T06:51:10;23.40;31.70
67196;DHT22;54122;53.538;49.366;2022-09-06T06:53:36;21.60;33.80
67196;DHT22;54122;53.538;49.366;2022-09-06T06:59:05;17.30;43.90
67196;DHT22;54122;53.538;49.366;2022-09-06T07:01:32;14.80;50.40
67196;DHT22;54122;53.538;49.366;2022-09-06T07:03:59;12.90;55.70
67196;DHT22;54122;53.538;49.366;2022-09-06T07:06:25;11.70;61.40
67196;DHT22;54122;53.538;49.366;2022-09-06T07:08:52;11.10;64.50
67196;DHT22;54122;53.538;49.366;2022-09-06T07:11:24;10.70;66.20
67196;DHT22;54122;53.538;49.366;2022-09-06T07:13:50;10.40;67.50
67196;DHT22;54122;53.538;49.366;2022-09-06T07:16:20;10.10;69.30
67196;DHT22;54122;53.538;49.366;2022-09-06T07:18:49;10.00;69.70
67196;DHT22;54122;53.538;49.366;2022-09-06T07:21:16;9.90;69.30
67196;DHT22;54122;53.538;49.366;2022-09-06T07:23:42;9.90;71.00
67196;DHT22;54122;53.538;49.366;2022-09-06T07:26:19;9.80;71.00
67196;DHT22;54122;53.538;49.366;2022-09-06T07:28:45;9.70;70.80
67196;DHT22;54122;53.538;49.366;2022-09-06T07:31:12;9.80;71.20
67196;DHT22;54122;53.538;49.366;2022-09-06T07:33:39;10.00;71.50
67196;DHT22;54122;53.538;49.366;2022-09-06T07:36:06;10.10;71.80
67196;DHT22;54122;53.538;49.366;2022-09-06T07:38:34;10.30;72.20
67196;DHT22;54122;53.538;49.366;2022-09-06T07:41:01;10.60;72.50
67196;DHT22;54122;53.538;49.366;2022-09-06T07:43:27;10.90;73.00
67196;DHT22;54122;53.538;49.366;2022-09-06T07:46:01;11.10;72.80
67196;DHT22;54122;53.538;49.366;2022-09-06T07:48:31;11.40;72.40
67196;DHT22;54122;53.538;49.366;2022-09-06T07:51:04;11.80;72.00
67196;DHT22;54122;53.538;49.366;2022-09-06T07:53:31;12.10;70.70
67196;DHT22;54122;53.538;49.366;2022-09-06T07:56:00;12.70;70.30
67196;DHT22;54122;53.538;49.366;2022-09-06T07:58:27;13.50;69.00
67196;DHT22;54122;53.538;49.366;2022-09-06T08:00:53;14.30;67.40
67196;DHT22;54122;53.538;49.366;2022-09-06T08:03:19;15.00;65.90
67196;DHT22;54122;53.538;49.366;2022-09-06T08:05:48;15.70;64.20
67196;DHT22;54122;53.538;49.366;2022-09-06T08:08:15;16.10;62.20
67196;DHT22;54122;53.538;49.366;2022-09-06T08:10:41;16.30;62.20
67196;DHT22;54122;53.538;49.366;2022-09-06T08:13:08;16.70;62.10
67196;DHT22;54122;53.538;49.366;2022-09-06T08:15:34;16.90;61.20
67196;DHT22;54122;53.538;49.366;2022-09-06T08:18:00;17.00;61.30
67196;DHT22;54122;53.538;49.366;2022-09-06T08:20:26;17.20;61.10
67196;DHT22;54122;53.538;49.366;2022-09-06T08:22:52;17.40;60.60
67196;DHT22;54122;53.538;49.366;2022-09-06T08:25:18;17.60;60.50
67196;DHT22;54122;53.538;49.366;2022-09-06T08:27:44;17.80;60.40
67196;DHT22;54122;53.538;49.366;2022-09-06T08:30:10;18.00;59.10
67196;DHT22;54122;53.538;49.366;2022-09-06T08:32:36;18.30;57.20
67196;DHT22;54122;53.538;49.366;2022-09-06T08:35:03;18.60;57.20
67196;DHT22;54122;53.538;49.366;2022-09-06T08:37:29;19.00;55.60
67196;DHT22;54122;53.538;49.366;2022-09-06T08:39:56;19.40;55.00
67196;DHT22;54122;53.538;49.366;2022-09-06T08:42:22;20.00;53.10
67196;DHT22;54122;53.538;49.366;2022-09-06T08:44:49;20.80;52.10
67196;DHT22;54122;53.538;49.366;2022-09-06T08:47:17;21.60;49.30
67196;DHT22;54122;53.538;49.366;2022-09-06T08:49:44;22.40;46.70
67196;DHT22;54122;53.538;49.366;2022-09-06T08:57:40;23.10;42.70
67196;DHT22;54122;53.538;49.366;2022-09-06T09:00:10;23.00;40.80
67196;DHT22;54122;53.538;49.366;2022-09-06T09:05:27;21.90;41.30
67196;DHT22;54122;53.538;49.366;2022-09-06T09:10:33;19.50;41.90
67196;DHT22;54122;53.538;49.366;2022-09-06T09:13:01;18.20;43.90
67196;DHT22;54122;53.538;49.366;2022-09-06T09:15:28;17.10;46.00
67196;DHT22;54122;53.538;49.366;2022-09-06T09:17:55;16.30;48.30
67196;DHT22;54122;53.538;49.366;2022-09-06T09:20:21;15.80;49.60
67196;DHT22;54122;53.538;49.366;2022-09-06T09:22:47;15.40;50.30
67196;DHT22;54122;53.538;49.366;2022-09-06T09:25:18;14.90;51.80
67196;DHT22;54122;53.538;49.366;2022-09-06T09:27:44;14.10;54.60
67196;DHT22;54122;53.538;49.366;2022-09-06T09:30:13;13.20;58.80
67196;DHT22;54122;53.538;49.366;2022-09-06T09:32:43;12.50;61.40
67196;DHT22;54122;53.538;49.366;2022-09-06T09:35:25;12.00;64.20
67196;DHT22;54122;53.538;49.366;2022-09-06T09:37:59;11.70;66.10
67196;DHT22;54122;53.538;49.366;2022-09-06T09:40:31;11.30;67.70
67196;DHT22;54122;53.538;49.366;2022-09-06T09:45:44;11.00;70.50
67196;DHT22;54122;53.538;49.366;2022-09-06T09:48:17;10.70;72.10
67196;DHT22;54122;53.538;49.366;2022-09-06T09:50:45;10.40;73.90
67196;DHT22;54122;53.538;49.366;2022-09-06T09:53:12;10.30;75.50
67196;DHT22;54122;53.538;49.366;2022-09-06T09:55:38;10.10;75.80
67196;DHT22;54122;53.538;49.366;2022-09-06T09:58:05;10.20;77.50
67196;DHT22;54122;53.538;49.366;2022-09-06T10:00:32;10.30;78.00
67196;DHT22;54122;53.538;49.366;2022-09-06T10:02:59;10.30;78.40
67196;DHT22;54122;53.538;49.366;2022-09-06T10:05:26;10.50;78.60
67196;DHT22;54122;53.538;49.366;2022-09-06T10:07:53;10.70;78.50
67196;DHT22;54122;53.538;49.366;2022-09-06T10:10:21;10.80;78.20
67196;DHT22;54122;53.538;49.366;2022-09-06T10:12:47;10.80;78.60
67196;DHT22;54122;53.538;49.366;2022-09-06T10:20:48;11.10;79.10
67196;DHT22;54122;53.538;49.366;2022-09-06T10:23:16;11.30;79.00
67196;DHT22;54122;53.538;49.366;2022-09-06T10:25:44;11.60;78.70
67196;DHT22;54122;53.538;49.366;2022-09-06T10:28:27;11.60;77.60
67196;DHT22;54122;53.538;49.366;2022-09-06T10:31:00;11.70;77.30
67196;DHT22;54122;53.538;49.366;2022-09-06T10:36:02;12.00;76.90
67196;DHT22;54122;53.538;49.366;2022-09-06T10:38:46;12.10;76.10
67196;DHT22;54122;53.538;49.366;2022-09-06T10:41:51;12.10;75.60
67196;DHT22;54122;53.538;49.366;2022-09-06T10:46:52;12.80;75.50
67196;DHT22;54122;53.538;49.366;2022-09-06T10:49:20;13.30;74.90
67196;DHT22;54122;53.538;49.366;2022-09-06T10:52:05;13.80;73.80
67196;DHT22;54122;53.538;49.366;2022-09-06T10:54:32;14.10;72.70
67196;DHT22;54122;53.538;49.366;2022-09-06T10:57:02;14.30;71.50
67196;DHT22;54122;53.538;49.366;2022-09-06T11:02:29;14.60;70.00
67196;DHT22;54122;53.538;49.366;2022-09-06T11:04:59;14.50;69.70
67196;DHT22;54122;53.538;49.366;2022-09-06T11:07:29;14.40;69.90
67196;DHT22;54122;53.538;49.366;2022-09-06T11:10:05;14.30;70.30
67196;DHT22;54122;53.538;49.366;2022-09-06T11:12:53;14.20;70.70
67196;DHT22;54122;53.538;49.366;2022-09-06T11:15:22;14.20;71.40
67196;DHT22;54122;53.538;49.366;2022-09-06T11:20:27;14.30;71.50
67196;DHT22;54122;53.538;49.366;2022-09-06T11:23:18;14.40;71.60
67196;DHT22;54122;53.538;49.366;2022-09-06T11:28:38;14.70;71.20
67196;DHT22;54122;53.538;49.366;2022-09-06T11:31:05;14.60;70.30
67196;DHT22;54122;53.538;49.366;2022-09-06T11:33:34;14.50;70.10
67196;DHT22;54122;53.538;49.366;2022-09-06T11:39:00;14.50;70.80
67196;DHT22;54122;53.538;49.366;2022-09-06T11:41:28;14.40;69.90
67196;DHT22;54122;53.538;49.366;2022-09-06T11:43:54;14.30;69.70
67196;DHT22;54122;53.538;49.366;2022-09-06T11:49:00;14.40;70.20
67196;DHT22;54122;53.538;49.366;2022-09-06T11:51:33;14.50;70.00
67196;DHT22;54122;53.538;49.366;2022-09-06T11:54:04;14.50;70.10
67196;DHT22;54122;53.538;49.366;2022-09-06T11:59:05;14.30;69.00
67196;DHT22;54122;53.538;49.366;2022-09-06T12:01:35;14.20;69.90
67196;DHT22;54122;53.538;49.366;2022-09-06T12:04:03;14.30;70.10
67196;DHT22;54122;53.538;49.366;2022-09-06T12:06:40;14.30;70.00
67196;DHT22;54122;53.538;49.366;2022-09-06T12:09:26;14.40;69.90
67196;DHT22;54122;53.538;49.366;2022-09-06T12:11:53;14.50;69.90
67196;DHT22;54122;53.538;49.366;2022-09-06T12:19:45;14.40;69.10
67196;DHT22;54122;53.538;49.366;2022-09-06T12:24:58;14.60;69.30
67196;DHT22;54122;53.538;49.366;2022-09-06T12:27:25;14.70;68.70
67196;DHT22;54122;53.538;49.366;2022-09-06T12:32:27;14.70;65.80
67196;DHT22;54122;53.538;49.366;2022-09-06T12:34:54;14.50;65.80
67196;DHT22;54122;53.538;49.366;2022-09-06T12:37:30;14.20;65.30
67196;DHT22;54122;53.538;49.366;2022-09-06T12:39:57;14.00;65.50
67196;DHT22;54122;53.538;49.366;2022-09-06T12:42:24;13.80;66.10
67196;DHT22;54122;53.538;49.366;2022-09-06T12:44:51;13.50;66.90
67196;DHT22;54122;53.538;49.366;2022-09-06T12:47:39;13.20;68.60
67196;DHT22;54122;53.538;49.366;2022-09-06T12:55:18;12.90;70.10
67196;DHT22;54122;53.538;49.366;2022-09-06T12:57:49;13.00;70.50
67196;DHT22;54122;53.538;49.366;2022-09-06T13:00:16;13.10;70.60
67196;DHT22;54122;53.538;49.366;2022-09-06T13:02:47;13.10;70.40
67196;DHT22;54122;53.538;49.366;2022-09-06T13:05:16;13.20;70.40
67196;DHT22;54122;53.538;49.366;2022-09-06T13:07:44;13.20;70.30
67196;DHT22;54122;53.538;49.366;2022-09-06T13:10:12;13.30;70.40
67196;DHT22;54122;53.538;49.366;2022-09-06T13:12:40;13.30;70.40
67196;DHT22;54122;53.538;49.366;2022-09-06T13:15:10;13.30;70.40
67196;DHT22;54122;53.538;49.366;2022-09-06T13:17:38;13.30;70.50
67196;DHT22;54122;53.538;49.366;2022-09-06T13:20:15;13.40;70.60
67196;DHT22;54122;53.538;49.366;2022-09-06T13:22:48;13.50;70.40
67196;DHT22;54122;53.538;49.366;2022-09-06T13:27:46;13.40;70.70
67196;DHT22;54122;53.538;49.366;2022-09-06T13:32:59;13.10;71.90
67196;DHT22;54122;53.538;49.366;2022-09-06T13:35:29;12.90;72.90
67196;DHT22;54122;53.538;49.366;2022-09-06T13:40:40;12.70;74.10
67196;DHT22;54122;53.538;49.366;2022-09-06T13:43:11;12.50;74.90
67196;DHT22;54122;53.538;49.366;2022-09-06T13:45:37;12.40;76.10
67196;DHT22;54122;53.538;49.366;2022-09-06T13:48:04;12.30;76.90
67196;DHT22;54122;53.538;49.366;2022-09-06T13:50:31;12.20;77.60
67196;DHT22;54122;53.538;49.366;2022-09-06T13:52:57;12.10;77.70
67196;DHT22;54122;53.538;49.366;2022-09-06T13:55:24;12.10;78.10
67196;DHT22;54122;53.538;49.366;2022-09-06T13:57:52;12.00;78.20
67196;DHT22;54122;53.538;49.366;2022-09-06T14:00:18;12.00;78.30
67196;DHT22;54122;53.538;49.366;2022-09-06T14:02:44;11.90;78.40
67196;DHT22;54122;53.538;49.366;2022-09-06T14:05:11;11.90;78.80
67196;DHT22;54122;53.538;49.366;2022-09-06T14:07:37;11.80;79.00
67196;DHT22;54122;53.538;49.366;2022-09-06T14:10:03;11.70;79.20
67196;DHT22;54122;53.538;49.366;2022-09-06T14:12:29;11.60;79.40
67196;DHT22;54122;53.538;49.366;2022-09-06T14:14:55;11.60;79.80
67196;DHT22;54122;53.538;49.366;2022-09-06T14:17:21;11.50;80.30
67196;DHT22;54122;53.538;49.366;2022-09-06T14:19:47;11.40;80.70
67196;DHT22;54122;53.538;49.366;2022-09-06T14:22:14;11.40;81.20
67196;DHT22;54122;53.538;49.366;2022-09-06T14:24:40;11.20;83.00
67196;DHT22;54122;53.538;49.366;2022-09-06T14:27:06;11.10;82.30
67196;DHT22;54122;53.538;49.366;2022-09-06T14:29:43;10.90;82.60
67196;DHT22;54122;53.538;49.366;2022-09-06T14:32:20;10.80;83.60
67196;DHT22;54122;53.538;49.366;2022-09-06T14:34:56;10.60;84.20
67196;DHT22;54122;53.538;49.366;2022-09-06T14:37:32;10.50;84.90
67196;DHT22;54122;53.538;49.366;2022-09-06T14:40:09;10.30;85.40
67196;DHT22;54122;53.538;49.366;2022-09-06T14:42:46;10.20;86.10
67196;DHT22;54122;53.538;49.366;2022-09-06T14:45:23;10.10;86.50
67196;DHT22;54122;53.538;49.366;2022-09-06T14:48:00;10.10;86.40
67196;DHT22;54122;53.538;49.366;2022-09-06T14:50:37;10.00;85.90
67196;DHT22;54122;53.538;49.366;2022-09-06T14:53:13;10.10;84.70
67196;DHT22;54122;53.538;49.366;2022-09-06T14:55:52;10.20;83.20
67196;DHT22;54122;53.538;49.366;2022-09-06T14:58:32;10.20;82.90
67196;DHT22;54122;53.538;49.366;2022-09-06T15:01:09;10.20;82.90
67196;DHT22;54122;53.538;49.366;2022-09-06T15:03:51;10.10;83.10
67196;DHT22;54122;53.538;49.366;2022-09-06T15:06:29;10.10;83.10
67196;DHT22;54122;53.538;49.366;2022-09-06T15:09:05;10.00;83.30
67196;DHT22;54122;53.538;49.366;2022-09-06T15:11:43;10.00;83.40
67196;DHT22;54122;53.538;49.366;2022-09-06T15:14:24;10.00;83.70
67196;DHT22;54122;53.538;49.366;2022-09-06T15:17:01;9.90;84.00
67196;DHT22;54122;53.538;49.366;2022-09-06T15:19:40;9.90;84.40
67196;DHT22;54122;53.538;49.366;2022-09-06T15:22:16;10.00;84.40
67196;DHT22;54122;53.538;49.366;2022-09-06T15:24:42;10.10;84.20
67196;DHT22;54122;53.538;49.366;2022-09-06T15:27:08;10.20;83.90
67196;DHT22;54122;53.538;49.366;2022-09-06T15:29:34;10.30;83.50
67196;DHT22;54122;53.538;49.366;2022-09-06T15:32:01;10.40;83.30
67196;DHT22;54122;53.538;49.366;2022-09-06T15:34:27;10.40;83.30
67196;DHT22;54122;53.538;49.366;2022-09-06T15:36:53;10.50;83.20
67196;DHT22;54122;53.538;49.366;2022-09-06T15:39:19;10.50;83.20
67196;DHT22;54122;53.538;49.366;2022-09-06T15:41:45;10.60;83.00
67196;DHT22;54122;53.538;49.366;2022-09-06T15:44:13;10.70;82.40
67196;DHT22;54122;53.538;49.366;2022-09-06T15:46:41;10.80;81.90
67196;DHT22;54122;53.538;49.366;2022-09-06T15:49:09;11.00;80.60
67196;DHT22;54122;53.538;49.366;2022-09-06T15:51:36;11.10;80.20
67196;DHT22;54122;53.538;49.366;2022-09-06T15:54:03;11.10;79.60
67196;DHT22;54122;53.538;49.366;2022-09-06T15:56:29;11.20;79.40
67196;DHT22;54122;53.538;49.366;2022-09-06T15:58:55;11.20;79.10
67196;DHT22;54122;53.538;49.366;2022-09-06T16:01:22;11.20;78.80
67196;DHT22;54122;53.538;49.366;2022-09-06T16:03:50;11.20;78.80
67196;DHT22;54122;53.538;49.366;2022-09-06T16:06:21;11.30;79.00
67196;DHT22;54122;53.538;49.366;2022-09-06T16:08:48;11.20;79.10
67196;DHT22;54122;53.538;49.366;2022-09-06T16:11:15;11.20;79.40
67196;DHT22;54122;53.538;49.366;2022-09-06T16:13:42;11.20;79.40
67196;DHT22;54122;53.538;49.366;2022-09-06T16:16:12;11.10;79.60
67196;DHT22;54122;53.538;49.366;2022-09-06T16:18:39;11.00;79.80
67196;DHT22;54122;53.538;49.366;2022-09-06T16:21:06;10.90;80.20
67196;DHT22;54122;53.538;49.366;2022-09-06T16:23:33;10.70;81.60
67196;DHT22;54122;53.538;49.366;2022-09-06T16:26:00;10.50;81.30
67196;DHT22;54122;53.538;49.366;2022-09-06T16:28:27;10.30;81.80
67196;DHT22;54122;53.538;49.366;2022-09-06T16:30:54;10.10;82.40
67196;DHT22;54122;53.538;49.366;2022-09-06T16:33:20;9.90;83.40
67196;DHT22;54122;53.538;49.366;2022-09-06T16:35:46;9.70;84.20
67196;DHT22;54122;53.538;49.366;2022-09-06T16:38:15;9.60;84.90
67196;DHT22;54122;53.538;49.366;2022-09-06T16:40:44;9.40;85.40
67196;DHT22;54122;53.538;49.366;2022-09-06T16:43:11;9.30;86.00
67196;DHT22;54122;53.538;49.366;2022-09-06T16:45:38;9.30;86.60
67196;DHT22;54122;53.538;49.366;2022-09-06T16:48:05;9.30;86.90
67196;DHT22;54122;53.538;49.366;2022-09-06T16:50:32;9.30;86.90
67196;DHT22;54122;53.538;49.366;2022-09-06T16:52:59;9.20;87.00
67196;DHT22;54122;53.538;49.366;2022-09-06T16:55:25;9.20;87.20
67196;DHT22;54122;53.538;49.366;2022-09-06T16:57:51;9.10;87.50
67196;DHT22;54122;53.538;49.366;2022-09-06T17:00:17;9.10;87.80
67196;DHT22;54122;53.538;49.366;2022-09-06T17:02:46;9.00;88.00
67196;DHT22;54122;53.538;49.366;2022-09-06T17:05:13;8.90;88.40
67196;DHT22;54122;53.538;49.366;2022-09-06T17:07:40;8.90;88.80